createdAt,value
2022-10-30T00:00:06.141Z,24.73
2022-10-30T00:02:39.315Z,26.38
2022-10-30T00:05:06.842Z,26.15
2022-10-30T00:07:34.373Z,26.92
2022-10-30T00:10:01.361Z,26.35
2022-10-30T00:12:28.301Z,23.60
2022-10-30T00:14:55.295Z,24.65
2022-10-30T00:17:22.165Z,25.80
2022-10-30T00:19:49.231Z,26.45
2022-10-30T00:22:16.336Z,27.35
2022-10-30T00:24:43.345Z,28.02
2022-10-30T00:27:10.530Z,27.80
2022-10-30T00:29:37.644Z,26.42
2022-10-30T00:32:04.804Z,29.52
2022-10-30T00:34:31.854Z,31.23
2022-10-30T00:36:58.786Z,21.35
2022-10-30T00:39:26.143Z,29.13
2022-10-30T00:41:53.115Z,28.52
2022-10-30T00:44:43.350Z,28.33
2022-10-30T00:47:34.663Z,24.67
2022-10-30T00:50:06.552Z,30.10
2022-10-30T00:52:37.840Z,28.23
2022-10-30T00:55:17.212Z,34.88
2022-10-30T00:57:45.268Z,28.42
2022-10-30T01:00:13.207Z,24.77
2022-10-30T01:02:42.251Z,28.20
2022-10-30T01:07:42.834Z,25.40
2022-10-30T01:10:11.330Z,33.08
2022-10-30T01:12:39.187Z,28.65
2022-10-30T01:15:07.213Z,25.70
2022-10-30T01:17:34.752Z,27.58
2022-10-30T01:20:42.268Z,31.98
2022-10-30T01:23:33.406Z,28.20
2022-10-30T01:26:25.243Z,32.20
2022-10-30T01:29:16.076Z,30.40
2022-10-30T01:32:17.065Z,26.85
2022-10-30T01:34:55.264Z,34.33
2022-10-30T01:37:38.185Z,29.65
2022-10-30T01:40:09.743Z,37.67
2022-10-30T01:42:47.874Z,32.25
2022-10-30T01:45:41.273Z,28.50
2022-10-30T01:48:14.060Z,27.65
2022-10-30T01:51:05.069Z,26.80
2022-10-30T01:54:04.578Z,27.98
2022-10-30T01:57:06.726Z,24.65
2022-10-30T01:59:53.312Z,29.23
2022-10-30T02:02:22.643Z,22.40
2022-10-30T02:04:50.598Z,30.13
2022-10-30T02:07:17.594Z,28.20
2022-10-30T02:09:51.574Z,26.73
2022-10-30T02:12:19.857Z,24.58
2022-10-30T02:14:52.134Z,21.45
2022-10-30T02:17:19.861Z,22.83
2022-10-30T02:19:49.999Z,23.10
2022-10-30T02:22:18.123Z,25.90
2022-10-30T02:24:45.242Z,28.90
2022-10-30T02:27:12.657Z,31.00
2022-10-30T02:29:41.040Z,27.25
2022-10-30T02:32:08.002Z,22.90
2022-10-30T02:34:35.304Z,29.23
2022-10-30T02:37:02.217Z,31.55
2022-10-30T02:39:29.015Z,29.73
2022-10-30T02:41:56.073Z,26.48
2022-10-30T02:44:23.052Z,31.25
2022-10-30T02:46:49.939Z,32.10
2022-10-30T02:49:16.772Z,31.05
2022-10-30T02:51:45.188Z,30.73
2022-10-30T02:54:13.121Z,30.25
2022-10-30T02:56:43.040Z,31.40
2022-10-30T02:59:10.086Z,29.60
2022-10-30T03:01:37.736Z,27.90
2022-10-30T03:04:05.036Z,28.60
2022-10-30T03:06:32.986Z,28.60
2022-10-30T03:09:00.000Z,28.50
2022-10-30T03:11:27.264Z,27.17
2022-10-30T03:13:56.411Z,29.60
2022-10-30T03:16:26.713Z,30.30
2022-10-30T03:18:55.105Z,26.13
2022-10-30T03:21:24.856Z,31.95
2022-10-30T03:23:52.347Z,26.83
2022-10-30T03:26:19.797Z,28.42
2022-10-30T03:28:50.940Z,23.77
2022-10-30T03:31:19.182Z,23.65
2022-10-30T03:33:47.735Z,37.28
2022-10-30T03:36:15.318Z,29.13
2022-10-30T03:38:43.067Z,26.88
2022-10-30T03:41:15.986Z,29.08
2022-10-30T03:43:44.171Z,35.10
2022-10-30T03:46:11.518Z,25.02
2022-10-30T03:48:38.766Z,31.15
2022-10-30T03:51:05.824Z,32.35
2022-10-30T03:53:35.139Z,30.67
2022-10-30T03:56:04.280Z,27.95
2022-10-30T03:58:40.284Z,28.90
2022-10-30T04:01:11.134Z,27.65
2022-10-30T04:03:40.990Z,30.75
2022-10-30T04:06:09.472Z,28.25
2022-10-30T04:08:36.514Z,25.35
2022-10-30T04:11:04.480Z,27.63
2022-10-30T04:13:31.529Z,29.30
2022-10-30T04:15:58.531Z,31.55
2022-10-30T04:18:26.492Z,27.73
2022-10-30T04:20:54.653Z,31.58
2022-10-30T04:23:22.216Z,30.80
2022-10-30T04:25:49.424Z,29.65
2022-10-30T04:28:16.584Z,28.70
2022-10-30T04:30:45.835Z,26.98
2022-10-30T04:33:14.578Z,30.05
2022-10-30T04:35:42.922Z,36.53
2022-10-30T04:38:16.853Z,33.60
2022-10-30T04:40:44.654Z,33.95
2022-10-30T04:43:13.600Z,34.15
2022-10-30T04:45:41.744Z,32.10
2022-10-30T04:48:14.859Z,34.42
2022-10-30T04:50:43.885Z,30.88
2022-10-30T04:53:16.947Z,37.22
2022-10-30T04:55:46.175Z,33.95
2022-10-30T04:58:13.832Z,34.58
2022-10-30T05:00:43.591Z,32.65
2022-10-30T05:03:20.895Z,36.85
2022-10-30T05:06:24.148Z,30.95
2022-10-30T05:08:51.467Z,37.58
2022-10-30T05:11:37.416Z,31.63
2022-10-30T05:14:04.450Z,31.90
2022-10-30T05:16:31.269Z,36.80
2022-10-30T05:18:59.648Z,33.92
2022-10-30T05:21:26.461Z,35.65
2022-10-30T05:23:54.317Z,31.83
2022-10-30T05:26:21.369Z,36.35
2022-10-30T05:28:48.246Z,34.90
2022-10-30T05:31:15.010Z,29.45
2022-10-30T05:34:11.081Z,26.58
2022-10-30T05:36:39.723Z,35.60
2022-10-30T05:39:06.724Z,34.47
2022-10-30T05:41:40.719Z,30.20
2022-10-30T05:44:09.899Z,32.50
2022-10-30T05:46:39.017Z,29.90
2022-10-30T05:49:14.986Z,31.02
2022-10-30T05:51:42.244Z,32.42
2022-10-30T05:54:11.230Z,34.47
2022-10-30T05:56:46.496Z,29.92
2022-10-30T05:59:13.839Z,34.75
2022-10-30T06:01:40.829Z,30.88
2022-10-30T06:04:12.085Z,34.67
2022-10-30T06:06:38.935Z,35.72
2022-10-30T06:09:05.753Z,34.47
2022-10-30T06:11:53.697Z,35.15
2022-10-30T06:14:26.654Z,34.88
2022-10-30T06:16:55.414Z,35.38
2022-10-30T06:19:49.960Z,31.88
2022-10-30T06:22:33.389Z,34.85
2022-10-30T06:25:09.311Z,32.72
2022-10-30T06:27:52.933Z,33.05
2022-10-30T06:30:20.489Z,37.00
2022-10-30T06:32:47.711Z,33.05
2022-10-30T06:35:15.227Z,31.05
2022-10-30T06:37:49.168Z,37.10
2022-10-30T06:40:16.999Z,31.58
2022-10-30T06:43:17.375Z,27.13
2022-10-30T06:45:50.705Z,34.70
2022-10-30T06:48:18.858Z,29.73
2022-10-30T06:50:55.335Z,33.13
2022-10-30T06:53:23.115Z,33.97
2022-10-30T06:56:02.184Z,33.55
2022-10-30T06:58:30.119Z,30.75
2022-10-30T07:01:07.066Z,32.28
2022-10-30T07:03:52.448Z,36.13
2022-10-30T07:06:19.394Z,31.50
2022-10-30T07:08:47.487Z,31.40
2022-10-30T07:11:15.229Z,32.40
2022-10-30T07:13:42.218Z,38.20
2022-10-30T07:16:28.032Z,36.58
2022-10-30T07:18:58.212Z,28.27
2022-10-30T07:21:27.640Z,30.75
2022-10-30T07:23:54.462Z,28.88
2022-10-30T07:26:38.094Z,29.60
2022-10-30T07:29:24.912Z,32.00
2022-10-30T07:32:12.836Z,29.48
2022-10-30T07:35:01.174Z,36.13
2022-10-30T07:37:35.646Z,30.25
2022-10-30T07:40:13.210Z,32.40
2022-10-30T07:43:00.726Z,28.15
2022-10-30T07:45:31.877Z,32.13
2022-10-30T07:48:17.454Z,27.48
2022-10-30T07:50:47.264Z,38.28
2022-10-30T07:53:14.952Z,29.90
2022-10-30T07:55:45.059Z,34.70
2022-10-30T07:58:14.710Z,24.60
2022-10-30T08:01:00.158Z,27.73
2022-10-30T08:03:32.145Z,30.42
2022-10-30T08:06:06.528Z,31.65
2022-10-30T08:08:41.960Z,25.80
2022-10-30T08:11:25.408Z,26.08
2022-10-30T08:13:53.717Z,23.33
2022-10-30T08:16:20.533Z,27.70
2022-10-30T08:18:47.428Z,29.00
2022-10-30T08:21:14.234Z,24.42
2022-10-30T08:23:53.251Z,28.85
2022-10-30T08:26:20.779Z,24.15
2022-10-30T08:28:47.679Z,22.98
2022-10-30T08:31:17.430Z,24.60
2022-10-30T08:34:02.534Z,23.17
2022-10-30T08:36:35.642Z,25.33
2022-10-30T08:39:04.106Z,22.50
2022-10-30T08:41:53.806Z,20.63
2022-10-30T08:44:21.777Z,21.98
2022-10-30T08:47:08.991Z,23.58
2022-10-30T08:49:37.142Z,20.15
2022-10-30T08:52:08.727Z,26.23
2022-10-30T08:54:35.851Z,22.00
2022-10-30T08:57:02.814Z,23.83
2022-10-30T08:59:29.733Z,23.48
2022-10-30T09:01:59.175Z,22.60
2022-10-30T09:04:44.535Z,18.17
2022-10-30T09:07:31.974Z,20.58
2022-10-30T09:10:18.861Z,15.18
2022-10-30T09:12:46.116Z,19.30
2022-10-30T09:15:14.079Z,22.10
2022-10-30T09:18:03.569Z,21.20
2022-10-30T09:20:31.013Z,17.05
2022-10-30T09:22:59.167Z,19.95
2022-10-30T09:25:27.191Z,17.40
2022-10-30T09:28:06.823Z,19.40
2022-10-30T09:30:53.105Z,20.80
2022-10-30T09:33:22.087Z,22.05
2022-10-30T09:36:22.285Z,17.77
2022-10-30T09:38:49.738Z,19.02
2022-10-30T09:41:50.198Z,20.17
2022-10-30T09:44:39.514Z,15.48
2022-10-30T09:47:26.866Z,18.02
2022-10-30T09:50:00.733Z,21.58
2022-10-30T09:52:40.099Z,17.30
2022-10-30T09:55:22.391Z,20.42
2022-10-30T09:58:03.960Z,15.80
2022-10-30T10:00:38.656Z,21.60
2022-10-30T10:03:41.545Z,18.38
2022-10-30T10:06:28.477Z,18.05
2022-10-30T10:09:25.111Z,23.10
2022-10-30T10:12:34.864Z,17.30
2022-10-30T10:15:10.617Z,15.55
2022-10-30T10:17:41.348Z,14.48
2022-10-30T10:20:30.524Z,15.88
2022-10-30T10:23:02.499Z,16.77
2022-10-30T10:25:31.157Z,14.13
2022-10-30T10:28:11.981Z,15.25
2022-10-30T10:31:18.394Z,19.58
2022-10-30T10:33:57.681Z,14.25
2022-10-30T10:36:42.431Z,17.42
2022-10-30T10:39:30.029Z,12.95
2022-10-30T10:42:19.440Z,16.73
2022-10-30T10:45:15.244Z,11.45
2022-10-30T10:48:04.288Z,15.15
2022-10-30T10:51:02.039Z,11.02
2022-10-30T10:53:46.866Z,15.60
2022-10-30T10:56:14.595Z,10.90
2022-10-30T10:58:56.767Z,11.73
2022-10-30T11:01:43.394Z,10.13
2022-10-30T11:04:20.511Z,17.02
2022-10-30T11:06:51.837Z,12.25
2022-10-30T11:09:21.528Z,11.30
2022-10-30T11:11:50.027Z,9.68
2022-10-30T11:14:20.090Z,11.57
2022-10-30T11:17:11.897Z,11.35
2022-10-30T11:19:38.818Z,13.70
2022-10-30T11:22:30.429Z,10.70
2022-10-30T11:25:18.697Z,9.65
2022-10-30T11:27:49.051Z,11.18
2022-10-30T11:30:21.557Z,7.70
2022-10-30T11:32:48.594Z,12.30
2022-10-30T11:35:20.006Z,10.30
2022-10-30T11:37:49.798Z,9.90
2022-10-30T11:40:21.049Z,11.35
2022-10-30T11:42:57.842Z,6.72
2022-10-30T11:45:43.509Z,7.93
2022-10-30T11:48:20.949Z,7.35
2022-10-30T11:50:49.972Z,8.85
2022-10-30T11:53:23.768Z,13.90
2022-10-30T11:55:51.301Z,8.50
2022-10-30T11:58:28.352Z,11.18
2022-10-30T12:01:07.600Z,10.57
2022-10-30T12:03:38.054Z,11.48
2022-10-30T12:06:20.106Z,11.77
2022-10-30T12:08:59.102Z,11.77
2022-10-30T12:11:35.115Z,9.95
2022-10-30T12:14:02.696Z,13.75
2022-10-30T12:16:30.186Z,9.35
2022-10-30T12:18:59.400Z,12.52
2022-10-30T12:21:27.949Z,12.77
2022-10-30T12:23:58.238Z,12.20
2022-10-30T12:26:26.219Z,9.98
2022-10-30T12:29:01.398Z,12.85
2022-10-30T12:31:37.443Z,10.95
2022-10-30T12:34:31.667Z,9.55
2022-10-30T12:37:21.237Z,10.68
2022-10-30T12:40:18.963Z,13.82
2022-10-30T12:42:54.515Z,11.50
2022-10-30T12:45:36.790Z,8.93
2022-10-30T12:48:11.709Z,14.30
2022-10-30T12:50:51.243Z,11.98
2022-10-30T12:53:38.107Z,12.55
2022-10-30T12:56:12.836Z,14.35
2022-10-30T12:59:14.030Z,13.20
2022-10-30T13:01:49.479Z,12.77
2022-10-30T13:04:22.070Z,15.52
2022-10-30T13:07:02.200Z,12.07
2022-10-30T13:09:49.764Z,13.27
2022-10-30T13:12:23.835Z,12.50
2022-10-30T13:14:58.485Z,14.05
2022-10-30T13:17:25.420Z,6.10
2022-10-30T13:19:52.220Z,9.77
2022-10-30T13:22:23.979Z,10.05
2022-10-30T13:25:08.169Z,5.78
2022-10-30T13:27:48.534Z,7.05
2022-10-30T13:30:22.812Z,7.82
2022-10-30T13:33:12.392Z,8.30
2022-10-30T13:36:03.742Z,11.07
2022-10-30T13:39:02.011Z,6.15
2022-10-30T13:41:45.475Z,4.88
2022-10-30T13:45:06.053Z,7.57
2022-10-30T13:47:51.451Z,5.85
2022-10-30T13:50:26.693Z,6.45
2022-10-30T13:52:58.310Z,6.20
2022-10-30T13:55:34.472Z,6.28
2022-10-30T13:58:17.448Z,5.25
2022-10-30T14:00:55.928Z,8.20
2022-10-30T14:03:42.294Z,7.50
2022-10-30T14:06:26.487Z,4.70
2022-10-30T14:09:11.990Z,5.82
2022-10-30T14:11:38.847Z,6.25
2022-10-30T14:14:24.287Z,8.27
2022-10-30T14:17:23.815Z,6.63
2022-10-30T14:20:10.405Z,4.30
2022-10-30T14:22:41.138Z,4.40
2022-10-30T14:25:15.884Z,5.85
2022-10-30T14:27:43.311Z,6.47
2022-10-30T14:30:20.567Z,4.78
2022-10-30T14:32:52.025Z,5.70
2022-10-30T14:35:39.343Z,2.92
2022-10-30T14:38:09.163Z,3.45
2022-10-30T14:40:47.452Z,6.72
2022-10-30T14:43:31.205Z,3.60
2022-10-30T14:46:05.455Z,2.97
2022-10-30T14:49:08.547Z,4.45
2022-10-30T14:51:45.254Z,4.20
2022-10-30T14:54:43.621Z,4.15
2022-10-30T14:57:48.301Z,3.92
2022-10-30T15:00:24.263Z,9.00
2022-10-30T15:03:21.730Z,5.20
2022-10-30T15:06:17.897Z,5.97
2022-10-30T15:09:10.709Z,7.70
2022-10-30T15:12:11.283Z,6.97
2022-10-30T15:14:54.965Z,4.63
2022-10-30T15:17:28.333Z,3.45
2022-10-30T15:19:55.785Z,5.85
2022-10-30T15:22:26.281Z,3.53
2022-10-30T15:24:53.470Z,3.75
2022-10-30T15:27:23.083Z,4.70
2022-10-30T15:29:56.415Z,4.03
2022-10-30T15:32:24.590Z,3.83
2022-10-30T15:34:56.360Z,4.80
2022-10-30T15:37:23.527Z,6.57
2022-10-30T15:39:50.482Z,1.50
2022-10-30T15:42:17.627Z,3.83
2022-10-30T15:44:46.285Z,3.58
2022-10-30T15:47:17.142Z,3.85
2022-10-30T15:49:50.926Z,4.78
2022-10-30T15:52:29.859Z,2.85
2022-10-30T15:55:10.289Z,3.05
2022-10-30T15:58:13.294Z,2.22
2022-10-30T16:00:38.506Z,3.15
2022-10-30T16:03:12.850Z,1.77
2022-10-30T16:05:39.700Z,3.38
2022-10-30T16:08:19.112Z,3.30
2022-10-30T16:10:46.776Z,2.88
2022-10-30T16:13:28.781Z,1.63
2022-10-30T16:15:55.904Z,5.10
2022-10-30T16:18:24.622Z,5.65
2022-10-30T16:20:56.449Z,3.03
2022-10-30T16:23:24.360Z,3.38
2022-10-30T16:25:56.752Z,4.90
2022-10-30T16:28:35.926Z,5.45
2022-10-30T16:31:06.692Z,4.65
2022-10-30T16:33:35.711Z,4.50
2022-10-30T16:36:04.410Z,3.88
2022-10-30T16:38:36.978Z,5.10
2022-10-30T16:41:13.342Z,4.75
2022-10-30T16:44:00.571Z,2.85
2022-10-30T16:46:35.268Z,4.22
2022-10-30T16:49:06.622Z,5.33
2022-10-30T16:51:33.572Z,3.28
2022-10-30T16:54:00.620Z,3.67
2022-10-30T16:56:29.731Z,3.25
2022-10-30T16:59:15.487Z,3.90
2022-10-30T17:01:42.578Z,4.43
2022-10-30T17:06:47.403Z,4.50
2022-10-30T17:09:25.713Z,3.35
2022-10-30T17:12:11.919Z,3.05
2022-10-30T17:14:44.444Z,2.90
2022-10-30T17:17:34.710Z,7.28
2022-10-30T17:20:04.569Z,6.15
2022-10-30T17:22:32.039Z,2.80
2022-10-30T17:25:00.161Z,5.18
2022-10-30T17:28:02.951Z,3.78
2022-10-30T17:30:34.429Z,4.30
2022-10-30T17:33:04.278Z,5.72
2022-10-30T17:35:31.217Z,3.75
2022-10-30T17:38:01.604Z,2.70
2022-10-30T17:40:29.911Z,5.68
2022-10-30T17:42:56.717Z,11.90
2022-10-30T17:45:23.668Z,10.65
2022-10-30T17:47:50.477Z,13.73
2022-10-30T17:50:17.341Z,6.60
2022-10-30T17:52:44.232Z,3.78
2022-10-30T17:55:28.398Z,4.10
2022-10-30T17:57:55.308Z,3.58
2022-10-30T18:00:22.258Z,4.38
2022-10-30T18:02:49.184Z,3.55
2022-10-30T18:05:22.436Z,4.28
2022-10-30T18:10:17.140Z,3.65
2022-10-30T18:12:45.241Z,3.78
2022-10-30T18:15:29.209Z,4.88
2022-10-30T18:17:56.313Z,3.92
2022-10-30T18:20:23.430Z,4.80
2022-10-30T18:22:50.356Z,4.88
2022-10-30T18:25:22.677Z,4.47
2022-10-30T18:27:49.578Z,6.00
2022-10-30T18:30:17.267Z,3.25
2022-10-30T18:32:44.289Z,3.28
2022-10-30T18:35:15.213Z,4.07
2022-10-30T18:37:42.321Z,7.32
2022-10-30T18:40:09.959Z,2.83
2022-10-30T18:42:36.952Z,5.57
2022-10-30T18:45:16.475Z,4.25
2022-10-30T18:47:43.300Z,2.97
2022-10-30T18:50:10.074Z,3.33
2022-10-30T18:52:36.926Z,2.53
2022-10-30T18:55:15.280Z,2.67
2022-10-30T18:57:42.122Z,4.95
2022-10-30T19:00:10.191Z,2.38
2022-10-30T19:02:37.228Z,2.28
2022-10-30T19:05:26.281Z,3.10
2022-10-30T19:07:53.327Z,5.38
2022-10-30T19:10:20.176Z,1.35
2022-10-30T19:13:10.977Z,3.58
2022-10-30T19:15:37.248Z,2.42
2022-10-30T19:18:05.614Z,2.35
2022-10-30T19:20:58.475Z,4.10
2022-10-30T19:23:24.339Z,4.80
2022-10-30T19:25:51.952Z,1.75
2022-10-30T19:28:20.528Z,3.90
2022-10-30T19:30:52.901Z,1.88
2022-10-30T19:33:22.232Z,3.10
2022-10-30T19:35:57.575Z,3.67
2022-10-30T19:38:24.737Z,7.28
2022-10-30T19:40:52.391Z,4.90
2022-10-30T19:43:19.466Z,5.40
2022-10-30T19:45:49.035Z,2.75
2022-10-30T19:48:24.747Z,1.73
2022-10-30T19:51:01.406Z,5.57
2022-10-30T19:53:28.218Z,5.72
2022-10-30T19:55:55.135Z,2.92
2022-10-30T19:58:25.135Z,2.38
2022-10-30T20:00:56.370Z,2.85
2022-10-30T20:03:23.327Z,2.33
2022-10-30T20:05:50.715Z,3.60
2022-10-30T20:08:22.861Z,3.08
2022-10-30T20:10:54.663Z,4.03
2022-10-30T20:13:25.965Z,3.25
2022-10-30T20:15:54.774Z,2.60
2022-10-30T20:18:30.163Z,3.50
2022-10-30T20:20:59.490Z,5.32
2022-10-30T20:23:26.879Z,4.05
2022-10-30T20:25:58.276Z,5.50
2022-10-30T20:28:27.543Z,2.88
2022-10-30T20:30:55.598Z,3.92
2022-10-30T20:33:23.640Z,3.95
2022-10-30T20:35:51.136Z,2.45
2022-10-30T20:38:20.395Z,2.25
2022-10-30T20:40:48.788Z,2.80
2022-10-30T20:43:19.608Z,3.28
2022-10-30T20:45:47.045Z,2.50
2022-10-30T20:48:14.245Z,4.97
2022-10-30T20:50:41.631Z,5.20
2022-10-30T20:53:12.215Z,3.42
2022-10-30T20:55:39.783Z,2.65
2022-10-30T20:58:06.744Z,4.40
2022-10-30T21:00:33.871Z,3.88
2022-10-30T21:03:05.650Z,3.75
2022-10-30T21:05:49.848Z,5.90
2022-10-30T21:08:16.773Z,4.47
2022-10-30T21:10:43.599Z,5.70
2022-10-30T21:13:11.529Z,3.78
2022-10-30T21:15:43.188Z,4.82
2022-10-30T21:18:12.873Z,3.22
2022-10-30T21:20:41.072Z,3.15
2022-10-30T21:23:08.378Z,4.10
2022-10-30T21:25:35.735Z,3.42
2022-10-30T21:28:03.010Z,4.53
2022-10-30T21:30:29.873Z,2.80
2022-10-30T21:32:58.102Z,3.47
2022-10-30T21:35:25.148Z,2.92
2022-10-30T21:37:52.034Z,3.50
2022-10-30T21:40:56.040Z,7.05
2022-10-30T21:43:22.975Z,3.67
2022-10-30T21:45:49.795Z,4.80
2022-10-30T21:48:18.691Z,5.63
2022-10-30T21:50:45.494Z,2.72
2022-10-30T21:53:12.314Z,5.13
2022-10-30T21:55:40.141Z,4.45
2022-10-30T21:58:07.045Z,2.88
2022-10-30T22:00:34.031Z,4.68
2022-10-30T22:03:00.874Z,5.18
2022-10-30T22:05:27.687Z,5.80
2022-10-30T22:07:54.659Z,4.90
2022-10-30T22:10:21.429Z,4.93
2022-10-30T22:12:48.310Z,5.13
2022-10-30T22:15:15.175Z,5.10
2022-10-30T22:17:42.020Z,3.90
2022-10-30T22:20:09.796Z,4.05
2022-10-30T22:22:36.624Z,4.93
2022-10-30T22:25:03.545Z,3.53
2022-10-30T22:27:30.427Z,4.75
2022-10-30T22:29:57.395Z,6.75
2022-10-30T22:32:24.307Z,6.20
2022-10-30T22:34:51.127Z,5.97
2022-10-30T22:37:18.000Z,5.55
2022-10-30T22:39:44.783Z,8.25
2022-10-30T22:42:11.708Z,5.97
2022-10-30T22:44:38.500Z,9.82
2022-10-30T22:47:05.374Z,6.47
2022-10-30T22:49:32.289Z,8.15
2022-10-30T22:51:59.148Z,9.65
2022-10-30T22:54:26.019Z,7.53
2022-10-30T22:56:55.788Z,6.43
2022-10-30T22:59:22.707Z,8.50
2022-10-30T23:01:49.580Z,5.38
2022-10-30T23:04:16.653Z,6.05
2022-10-30T23:06:43.938Z,8.90
2022-10-30T23:09:17.230Z,7.82
2022-10-30T23:11:44.090Z,7.82
2022-10-30T23:14:11.114Z,6.70
2022-10-30T23:16:38.076Z,6.47
2022-10-30T23:19:04.889Z,8.00
2022-10-30T23:21:31.966Z,6.43
2022-10-30T23:23:59.251Z,7.55
2022-10-30T23:26:28.932Z,7.80
2022-10-30T23:28:56.904Z,9.45
2022-10-30T23:31:29.647Z,9.50
2022-10-30T23:33:59.031Z,9.20
2022-10-30T23:36:25.926Z,10.27
2022-10-30T23:38:58.646Z,8.63
2022-10-30T23:41:28.546Z,9.65
2022-10-30T23:43:57.074Z,9.13
2022-10-30T23:46:23.917Z,8.95
2022-10-30T23:48:51.170Z,9.90
2022-10-30T23:51:20.875Z,11.63
2022-10-30T23:53:48.463Z,9.93
2022-10-30T23:56:15.672Z,10.63
2022-10-30T23:58:46.898Z,11.57
